createdAt,value
2018-05-26T00:00:10.344Z,4.80
2018-05-26T00:00:43.418Z,5.03
2018-05-26T00:01:15.990Z,4.90
2018-05-26T00:01:49.203Z,5.53
2018-05-26T00:02:21.800Z,5.47
2018-05-26T00:02:54.317Z,5.78
2018-05-26T00:03:26.847Z,5.68
2018-05-26T00:04:00.377Z,5.10
2018-05-26T00:04:34.300Z,5.75
2018-05-26T00:05:06.930Z,6.25
2018-05-26T00:05:39.477Z,5.50
2018-05-26T00:06:11.984Z,5.80
2018-05-26T00:06:44.629Z,5.20
2018-05-26T00:07:17.351Z,5.43
2018-05-26T00:07:52.118Z,5.45
2018-05-26T00:08:25.512Z,5.93
2018-05-26T00:08:58.052Z,5.78
2018-05-26T00:09:30.790Z,5.30
2018-05-26T00:10:03.536Z,5.20
2018-05-26T00:10:36.321Z,5.75
2018-05-26T00:11:09.525Z,5.90
2018-05-26T00:11:43.898Z,5.55
2018-05-26T00:12:16.602Z,5.50
2018-05-26T00:12:49.588Z,5.22
2018-05-26T00:13:22.112Z,6.20
2018-05-26T00:13:54.700Z,5.07
2018-05-26T00:14:28.057Z,5.57
2018-05-26T00:15:00.761Z,5.20
2018-05-26T00:15:33.287Z,5.55
2018-05-26T00:16:06.881Z,5.37
2018-05-26T00:16:40.374Z,6.15
2018-05-26T00:17:13.541Z,4.75
2018-05-26T00:17:46.343Z,5.15
2018-05-26T00:18:19.646Z,5.07
2018-05-26T00:18:52.354Z,5.55
2018-05-26T00:19:25.380Z,5.10
2018-05-26T00:19:57.878Z,5.55
2018-05-26T00:20:31.145Z,5.55
2018-05-26T00:21:03.902Z,5.20
2018-05-26T00:21:37.693Z,6.20
2018-05-26T00:22:10.322Z,5.62
2018-05-26T00:22:48.479Z,5.50
2018-05-26T00:23:21.179Z,5.75
2018-05-26T00:23:54.039Z,6.12
2018-05-26T00:24:26.554Z,6.03
2018-05-26T00:24:59.366Z,5.75
2018-05-26T00:25:32.914Z,5.60
2018-05-26T00:26:05.650Z,5.50
2018-05-26T00:26:38.165Z,5.70
2018-05-26T00:27:10.953Z,5.80
2018-05-26T00:27:43.715Z,5.60
2018-05-26T00:28:17.670Z,5.32
2018-05-26T00:28:50.192Z,5.25
2018-05-26T00:29:23.401Z,5.35
2018-05-26T00:29:55.932Z,6.00
2018-05-26T00:30:29.283Z,5.95
2018-05-26T00:31:02.716Z,5.95
2018-05-26T00:31:35.408Z,5.80
2018-05-26T00:32:08.033Z,5.70
2018-05-26T00:32:40.646Z,5.82
2018-05-26T00:33:13.173Z,6.12
2018-05-26T00:33:46.945Z,6.05
2018-05-26T00:34:20.649Z,6.47
2018-05-26T00:34:55.428Z,8.63
2018-05-26T00:35:28.033Z,6.70
2018-05-26T00:36:00.600Z,9.27
2018-05-26T00:36:34.081Z,7.80
2018-05-26T00:37:06.936Z,7.10
2018-05-26T00:37:39.644Z,6.05
2018-05-26T00:38:12.201Z,5.37
2018-05-26T00:38:44.857Z,5.37
2018-05-26T00:39:17.557Z,5.95
2018-05-26T00:39:50.379Z,6.07
2018-05-26T00:40:22.902Z,6.10
2018-05-26T00:40:56.063Z,5.90
2018-05-26T00:41:29.171Z,5.65
2018-05-26T00:42:01.968Z,5.90
2018-05-26T00:42:35.233Z,5.95
2018-05-26T00:43:09.118Z,6.07
2018-05-26T00:43:42.649Z,5.72
2018-05-26T00:44:15.189Z,6.30
2018-05-26T00:44:47.711Z,6.62
2018-05-26T00:45:20.344Z,6.07
2018-05-26T00:45:52.894Z,6.62
2018-05-26T00:46:26.374Z,6.53
2018-05-26T00:46:58.912Z,6.07
2018-05-26T00:47:32.341Z,6.20
2018-05-26T00:48:04.867Z,6.03
2018-05-26T00:48:39.484Z,5.75
2018-05-26T00:49:12.050Z,6.30
2018-05-26T00:49:44.756Z,5.10
2018-05-26T00:50:19.501Z,6.43
2018-05-26T00:50:52.122Z,8.55
2018-05-26T00:51:24.683Z,6.35
2018-05-26T00:51:57.297Z,6.25
2018-05-26T00:52:29.816Z,5.93
2018-05-26T00:53:02.528Z,7.18
2018-05-26T00:53:35.285Z,6.40
2018-05-26T00:54:08.197Z,5.60
2018-05-26T00:54:41.679Z,5.68
2018-05-26T00:55:15.245Z,5.93
2018-05-26T00:55:48.071Z,5.68
2018-05-26T00:56:20.678Z,5.50
2018-05-26T00:56:54.040Z,6.45
2018-05-26T00:57:27.686Z,6.05
2018-05-26T00:58:01.078Z,6.28
2018-05-26T00:58:33.659Z,6.45
2018-05-26T00:59:07.202Z,7.70
2018-05-26T00:59:40.829Z,6.40
2018-05-26T01:00:13.396Z,6.37
2018-05-26T01:00:46.039Z,6.40
2018-05-26T01:01:19.541Z,7.05
2018-05-26T01:01:52.154Z,6.80
2018-05-26T01:02:24.855Z,6.28
2018-05-26T01:02:58.530Z,6.70
2018-05-26T01:03:32.371Z,6.20
2018-05-26T01:04:04.885Z,6.78
2018-05-26T01:04:38.320Z,6.65
2018-05-26T01:05:10.834Z,7.00
2018-05-26T01:05:43.452Z,6.90
2018-05-26T01:06:16.016Z,6.75
2018-05-26T01:06:49.684Z,6.82
2018-05-26T01:07:22.249Z,6.40
2018-05-26T01:07:54.815Z,5.95
2018-05-26T01:08:27.504Z,5.90
2018-05-26T01:09:02.047Z,5.55
2018-05-26T01:09:34.660Z,6.53
2018-05-26T01:10:07.171Z,6.12
2018-05-26T01:10:40.420Z,6.60
2018-05-26T01:11:14.092Z,6.30
2018-05-26T01:11:46.820Z,6.22
2018-05-26T01:12:19.522Z,6.72
2018-05-26T01:12:52.923Z,5.78
2018-05-26T01:13:26.260Z,6.15
2018-05-26T01:13:58.775Z,5.95
2018-05-26T01:14:31.708Z,6.30
2018-05-26T01:15:04.477Z,7.12
2018-05-26T01:15:37.755Z,6.20
2018-05-26T01:16:11.036Z,6.30
2018-05-26T01:16:43.848Z,5.90
2018-05-26T01:17:17.088Z,5.70
2018-05-26T01:17:49.613Z,6.00
2018-05-26T01:18:22.213Z,6.28
2018-05-26T01:18:54.803Z,6.45
2018-05-26T01:19:27.347Z,6.62
2018-05-26T01:19:59.874Z,6.18
2018-05-26T01:20:32.431Z,5.97
2018-05-26T01:21:05.723Z,5.95
2018-05-26T01:21:38.955Z,6.03
2018-05-26T01:22:12.717Z,6.32
2018-05-26T01:22:46.304Z,6.37
2018-05-26T01:23:19.005Z,6.40
2018-05-26T01:23:52.802Z,6.60
2018-05-26T01:24:26.405Z,5.87
2018-05-26T01:24:59.123Z,6.15
2018-05-26T01:25:31.646Z,5.82
2018-05-26T01:26:05.169Z,6.45
2018-05-26T01:26:37.853Z,6.40
2018-05-26T01:27:10.381Z,7.32
2018-05-26T01:27:43.054Z,6.37
2018-05-26T01:28:15.567Z,6.05
2018-05-26T01:28:48.144Z,6.12
2018-05-26T01:29:20.892Z,7.80
2018-05-26T01:29:53.653Z,5.82
2018-05-26T01:30:26.179Z,6.15
2018-05-26T01:30:58.716Z,6.60
2018-05-26T01:31:31.632Z,5.68
2018-05-26T01:32:04.305Z,6.75
2018-05-26T01:45:32.642Z,6.97
2018-05-26T01:46:05.943Z,7.35
2018-05-26T01:46:38.608Z,6.10
2018-05-26T01:47:11.528Z,6.45
2018-05-26T01:47:44.241Z,7.43
2018-05-26T01:48:17.106Z,6.70
2018-05-26T01:48:49.695Z,6.90
2018-05-26T01:49:22.392Z,7.03
2018-05-26T01:49:55.790Z,6.80
2018-05-26T01:50:28.433Z,6.68
2018-05-26T01:51:01.047Z,7.15
2018-05-26T01:51:33.565Z,6.70
2018-05-26T01:52:06.178Z,7.45
2018-05-26T01:52:38.698Z,7.10
2018-05-26T01:53:12.060Z,6.55
2018-05-26T01:53:45.112Z,6.68
2018-05-26T01:54:18.493Z,7.10
2018-05-26T01:54:51.224Z,7.25
2018-05-26T01:55:23.763Z,7.00
2018-05-26T01:55:56.308Z,6.45
2018-05-26T01:56:28.996Z,8.00
2018-05-26T01:57:01.637Z,6.93
2018-05-26T01:57:34.232Z,7.12
2018-05-26T01:58:06.761Z,6.90
2018-05-26T01:58:39.903Z,6.80
2018-05-26T01:59:12.472Z,6.87
2018-05-26T01:59:45.055Z,6.85
2018-05-26T02:00:17.584Z,6.90
2018-05-26T02:00:50.267Z,6.70
2018-05-26T02:01:22.926Z,7.43
2018-05-26T02:01:55.560Z,7.20
2018-05-26T02:02:28.158Z,6.10
2018-05-26T02:03:00.696Z,6.30
2018-05-26T02:03:33.983Z,6.30
2018-05-26T02:04:07.565Z,6.50
2018-05-26T02:04:40.274Z,7.72
2018-05-26T02:05:13.387Z,7.60
2018-05-26T02:05:45.976Z,6.75
2018-05-26T02:06:18.662Z,7.03
2018-05-26T02:06:51.371Z,7.25
2018-05-26T02:07:24.428Z,8.07
2018-05-26T02:07:57.178Z,6.60
2018-05-26T02:08:29.718Z,7.22
2018-05-26T02:09:02.265Z,7.62
2018-05-26T02:09:34.807Z,7.20
2018-05-26T02:10:07.344Z,7.10
2018-05-26T02:10:39.886Z,7.03
2018-05-26T02:11:12.539Z,8.18
2018-05-26T02:11:45.049Z,7.40
2018-05-26T02:12:17.581Z,7.50
2018-05-26T02:12:50.162Z,6.43
2018-05-26T02:13:22.670Z,6.82
2018-05-26T02:13:55.247Z,7.55
2018-05-26T02:14:27.772Z,7.53
2018-05-26T02:15:01.097Z,6.43
2018-05-26T02:15:33.640Z,6.70
2018-05-26T02:16:06.156Z,6.72
2018-05-26T02:16:38.665Z,6.90
2018-05-26T02:17:11.250Z,6.55
2018-05-26T02:17:43.792Z,7.32
2018-05-26T02:18:16.327Z,6.75
2018-05-26T02:18:48.990Z,6.80
2018-05-26T02:19:21.649Z,7.07
2018-05-26T02:19:54.190Z,7.35
2018-05-26T02:20:26.705Z,7.20
2018-05-26T02:20:59.228Z,6.90
2018-05-26T02:21:31.750Z,6.70
2018-05-26T02:22:04.288Z,6.95
2018-05-26T02:22:37.593Z,7.35
2018-05-26T02:23:10.118Z,6.75
2018-05-26T02:23:42.659Z,7.20
2018-05-26T02:24:16.042Z,7.20
2018-05-26T02:24:48.715Z,6.90
2018-05-26T02:25:21.252Z,7.60
2018-05-26T02:25:53.776Z,6.85
2018-05-26T02:26:27.185Z,6.45
2018-05-26T02:26:59.698Z,7.60
2018-05-26T02:27:32.214Z,7.32
2018-05-26T02:28:04.788Z,7.57
2018-05-26T02:28:37.309Z,6.82
2018-05-26T02:29:09.861Z,7.70
2018-05-26T02:29:42.394Z,6.85
2018-05-26T02:30:14.919Z,7.50
2018-05-26T02:30:47.447Z,6.80
2018-05-26T02:31:19.944Z,6.82
2018-05-26T02:31:52.849Z,6.75
2018-05-26T02:32:25.381Z,7.70
2018-05-26T02:32:57.891Z,7.22
2018-05-26T02:33:30.410Z,7.68
2018-05-26T02:34:02.940Z,7.60
2018-05-26T02:34:35.497Z,7.85
2018-05-26T02:35:08.026Z,7.03
2018-05-26T02:35:40.591Z,7.28
2018-05-26T02:36:13.224Z,6.40
2018-05-26T02:36:45.820Z,6.95
2018-05-26T02:37:18.481Z,7.45
2018-05-26T02:37:51.012Z,7.70
2018-05-26T02:38:23.525Z,7.53
2018-05-26T02:38:56.075Z,6.53
2018-05-26T02:39:28.612Z,7.57
2018-05-26T02:40:01.204Z,7.37
2018-05-26T02:40:33.734Z,6.78
2018-05-26T02:41:06.428Z,7.07
2018-05-26T02:41:39.295Z,7.45
2018-05-26T02:42:11.826Z,7.10
2018-05-26T02:42:44.735Z,7.85
2018-05-26T02:43:17.301Z,7.30
2018-05-26T02:43:49.862Z,7.50
2018-05-26T02:44:22.365Z,7.50
2018-05-26T02:44:54.886Z,6.62
2018-05-26T02:45:27.413Z,6.45
2018-05-26T02:45:59.971Z,7.10
2018-05-26T02:46:32.550Z,8.38
2018-05-26T02:47:05.071Z,7.50
2018-05-26T02:47:37.727Z,7.00
2018-05-26T02:48:10.232Z,8.23
2018-05-26T02:48:42.739Z,7.80
2018-05-26T02:49:15.425Z,7.60
2018-05-26T02:49:47.972Z,7.37
2018-05-26T02:50:20.491Z,7.60
2018-05-26T02:50:53.067Z,8.07
2018-05-26T02:51:25.715Z,7.30
2018-05-26T02:51:58.256Z,8.02
2018-05-26T02:52:30.775Z,7.20
2018-05-26T02:53:03.279Z,7.25
2018-05-26T02:53:35.814Z,8.48
2018-05-26T02:54:08.461Z,7.62
2018-05-26T02:54:40.998Z,8.65
2018-05-26T02:55:13.533Z,8.27
2018-05-26T02:55:46.063Z,7.93
2018-05-26T02:56:18.660Z,7.60
2018-05-26T02:56:51.180Z,7.55
2018-05-26T02:57:23.748Z,7.32
2018-05-26T02:57:56.282Z,7.22
2018-05-26T02:58:29.595Z,7.70
2018-05-26T02:59:02.153Z,8.05
2018-05-26T02:59:34.721Z,8.30
2018-05-26T03:00:07.247Z,7.53
2018-05-26T03:00:39.786Z,7.12
2018-05-26T03:01:12.300Z,7.37
2018-05-26T03:01:44.982Z,7.60
2018-05-26T03:02:17.503Z,8.40
2018-05-26T03:02:50.051Z,7.47
2018-05-26T03:03:22.568Z,7.82
2018-05-26T03:03:54.651Z,7.95
2018-05-26T03:04:33.123Z,7.72
2018-05-26T03:05:11.268Z,7.18
2018-05-26T03:05:49.463Z,7.05
2018-05-26T03:06:27.659Z,7.22
2018-05-26T03:07:06.647Z,7.25
2018-05-26T03:07:44.715Z,7.95
2018-05-26T03:08:22.808Z,7.90
2018-05-26T03:09:00.922Z,7.70
2018-05-26T03:09:39.049Z,6.97
2018-05-26T03:10:17.326Z,7.68
2018-05-26T03:10:55.584Z,7.03
2018-05-26T03:11:33.636Z,7.75
2018-05-26T03:12:12.732Z,7.70
2018-05-26T03:12:50.822Z,7.53
2018-05-26T03:13:29.055Z,8.05
2018-05-26T03:14:07.240Z,7.50
2018-05-26T03:14:45.486Z,7.80
2018-05-26T03:15:17.589Z,8.75
2018-05-26T03:15:51.356Z,8.02
2018-05-26T03:16:28.759Z,7.40
2018-05-26T03:17:01.483Z,7.43
2018-05-26T03:17:48.912Z,7.32
2018-05-26T03:19:07.843Z,7.28
2018-05-26T03:19:40.429Z,7.62
2018-05-26T03:20:12.948Z,8.05
2018-05-26T03:20:46.233Z,7.40
2018-05-26T03:21:18.768Z,7.15
2018-05-26T03:21:51.278Z,7.45
2018-05-26T03:22:23.789Z,7.30
2018-05-26T03:22:56.340Z,7.07
2018-05-26T03:23:29.014Z,8.05
2018-05-26T03:24:01.535Z,7.55
2018-05-26T03:24:34.066Z,7.57
2018-05-26T03:25:07.349Z,7.57
2018-05-26T03:25:39.874Z,6.85
2018-05-26T03:26:12.524Z,8.05
2018-05-26T03:26:45.051Z,7.80
2018-05-26T03:27:17.579Z,8.25
2018-05-26T03:27:50.113Z,7.72
2018-05-26T03:28:22.695Z,6.68
2018-05-26T03:28:55.224Z,7.20
2018-05-26T03:29:27.767Z,6.90
2018-05-26T03:30:01.059Z,7.43
2018-05-26T03:30:33.735Z,7.53
2018-05-26T03:31:06.264Z,7.28
2018-05-26T03:31:38.769Z,7.57
2018-05-26T03:32:11.297Z,7.60
2018-05-26T03:32:43.995Z,7.10
2018-05-26T03:33:16.523Z,7.30
2018-05-26T03:33:49.054Z,7.15
2018-05-26T03:34:21.594Z,7.10
2018-05-26T03:34:54.131Z,7.43
2018-05-26T03:35:26.636Z,7.30
2018-05-26T03:35:59.160Z,7.03
2018-05-26T03:36:31.689Z,6.97
2018-05-26T03:37:04.196Z,6.72
2018-05-26T03:37:36.713Z,6.85
2018-05-26T03:38:09.245Z,7.68
2018-05-26T03:38:41.764Z,6.93
2018-05-26T03:39:14.322Z,8.07
2018-05-26T03:39:46.837Z,6.75
2018-05-26T03:40:19.375Z,6.90
2018-05-26T03:40:52.127Z,7.10
2018-05-26T03:41:24.832Z,6.70
2018-05-26T03:41:57.395Z,7.68
2018-05-26T03:42:29.944Z,7.35
2018-05-26T03:43:02.468Z,7.45
2018-05-26T03:43:34.989Z,7.28
2018-05-26T03:44:07.514Z,6.93
2018-05-26T03:44:40.077Z,7.30
2018-05-26T03:45:12.604Z,7.35
2018-05-26T03:45:45.132Z,8.20
2018-05-26T03:46:17.663Z,6.72
2018-05-26T03:46:50.181Z,7.22
2018-05-26T03:47:22.696Z,7.65
2018-05-26T03:47:55.227Z,7.80
2018-05-26T03:48:27.806Z,7.50
2018-05-26T03:49:01.104Z,7.32
2018-05-26T03:49:33.634Z,7.20
2018-05-26T03:50:06.977Z,7.47
2018-05-26T03:50:39.525Z,7.45
2018-05-26T03:51:12.046Z,7.40
2018-05-26T03:51:44.566Z,7.30
2018-05-26T03:52:17.219Z,7.30
2018-05-26T03:52:49.751Z,7.00
2018-05-26T03:53:22.973Z,6.97
2018-05-26T03:53:55.507Z,6.72
2018-05-26T03:54:40.011Z,6.95
2018-05-26T03:55:33.328Z,6.93
2018-05-26T03:56:17.649Z,7.35
2018-05-26T03:57:01.874Z,7.07
2018-05-26T03:57:46.219Z,7.12
2018-05-26T03:58:30.421Z,7.87
2018-05-26T03:59:15.621Z,6.85
2018-05-26T04:00:11.866Z,7.25
2018-05-26T04:00:44.441Z,7.05
2018-05-26T04:01:16.956Z,6.62
2018-05-26T04:01:49.533Z,6.65
2018-05-26T04:02:22.058Z,7.15
2018-05-26T04:02:54.786Z,7.25
2018-05-26T04:03:27.376Z,6.95
2018-05-26T04:03:59.877Z,7.70
2018-05-26T04:04:33.169Z,6.93
2018-05-26T04:05:05.691Z,7.53
2018-05-26T04:05:38.213Z,6.78
2018-05-26T04:06:10.848Z,7.90
2018-05-26T04:06:43.370Z,7.37
2018-05-26T04:07:15.889Z,7.32
2018-05-26T04:07:48.427Z,7.10
2018-05-26T04:08:20.951Z,6.93
2018-05-26T04:08:53.459Z,6.80
2018-05-26T04:09:25.977Z,6.30
2018-05-26T04:09:58.543Z,6.97
2018-05-26T04:10:31.043Z,7.32
2018-05-26T04:11:03.570Z,6.85
2018-05-26T04:11:36.109Z,7.37
2018-05-26T04:12:08.720Z,7.18
2018-05-26T04:12:41.267Z,7.03
2018-05-26T04:13:13.801Z,7.75
2018-05-26T04:13:46.337Z,6.90
2018-05-26T04:14:18.867Z,7.87
2018-05-26T04:14:51.393Z,7.30
2018-05-26T04:15:23.924Z,6.80
2018-05-26T04:15:56.493Z,7.65
2018-05-26T04:16:29.020Z,8.00
2018-05-26T04:17:01.855Z,7.03
2018-05-26T04:17:34.489Z,7.40
2018-05-26T04:18:07.091Z,7.18
2018-05-26T04:18:39.883Z,7.10
2018-05-26T04:19:12.396Z,7.30
2018-05-26T04:19:44.909Z,6.97
2018-05-26T04:20:17.476Z,7.18
2018-05-26T04:20:50.032Z,6.97
2018-05-26T04:21:22.631Z,8.23
2018-05-26T04:21:55.158Z,7.20
2018-05-26T04:22:27.676Z,7.43
2018-05-26T04:23:00.966Z,7.10
2018-05-26T04:23:33.496Z,7.62
2018-05-26T04:24:06.026Z,8.20
2018-05-26T04:24:38.788Z,7.60
2018-05-26T04:25:11.343Z,6.95
2018-05-26T04:25:43.903Z,8.05
2018-05-26T04:26:16.430Z,7.55
2018-05-26T04:26:48.977Z,7.75
2018-05-26T04:27:21.505Z,7.90
2018-05-26T04:27:54.036Z,7.53
2018-05-26T04:28:26.609Z,6.93
2018-05-26T04:28:59.132Z,7.70
2018-05-26T04:29:31.656Z,7.30
2018-05-26T04:30:04.197Z,7.53
2018-05-26T04:30:36.724Z,7.15
2018-05-26T04:31:09.247Z,7.37
2018-05-26T04:31:41.773Z,7.32
2018-05-26T04:32:14.324Z,7.62
2018-05-26T04:32:46.839Z,7.30
2018-05-26T04:33:19.361Z,7.47
2018-05-26T04:33:51.892Z,7.43
2018-05-26T04:34:24.425Z,7.40
2018-05-26T04:34:57.022Z,7.12
2018-05-26T04:35:29.597Z,7.80
2018-05-26T04:36:02.152Z,7.30
2018-05-26T04:36:34.681Z,7.70
2018-05-26T04:37:07.237Z,8.00
2018-05-26T04:37:39.788Z,7.50
2018-05-26T04:38:12.309Z,7.97
2018-05-26T04:38:44.891Z,7.72
2018-05-26T04:39:17.429Z,7.70
2018-05-26T04:39:49.945Z,7.22
2018-05-26T04:40:22.462Z,7.40
2018-05-26T04:40:55.016Z,8.15
2018-05-26T04:41:27.609Z,7.32
2018-05-26T04:42:00.318Z,8.65
2018-05-26T04:42:32.838Z,7.62
2018-05-26T04:43:06.114Z,8.15
2018-05-26T04:43:38.656Z,8.05
2018-05-26T04:44:11.185Z,7.65
2018-05-26T04:44:43.787Z,7.97
2018-05-26T04:45:16.427Z,8.18
2018-05-26T04:45:48.940Z,7.68
2018-05-26T04:46:21.451Z,7.87
2018-05-26T04:46:53.963Z,8.30
2018-05-26T04:47:26.492Z,7.75
2018-05-26T04:47:59.024Z,7.35
2018-05-26T04:48:31.551Z,7.50
2018-05-26T04:49:04.077Z,7.53
2018-05-26T04:49:37.524Z,7.75
2018-05-26T04:50:10.116Z,8.27
2018-05-26T04:50:42.645Z,7.10
2018-05-26T04:51:15.225Z,7.70
2018-05-26T04:51:47.752Z,8.20
2018-05-26T04:52:20.417Z,7.78
2018-05-26T04:52:53.112Z,8.30
2018-05-26T04:53:25.668Z,7.50
2018-05-26T04:53:58.954Z,7.32
2018-05-26T04:54:31.514Z,8.50
2018-05-26T04:55:04.053Z,8.55
2018-05-26T04:55:37.562Z,8.35
2018-05-26T04:56:10.073Z,8.95
2018-05-26T04:56:42.608Z,7.30
2018-05-26T04:57:15.148Z,7.90
2018-05-26T04:57:47.777Z,6.95
2018-05-26T04:58:20.509Z,7.60
2018-05-26T04:58:53.023Z,7.07
2018-05-26T04:59:26.405Z,8.00
2018-05-26T04:59:58.948Z,7.30
2018-05-26T05:00:31.517Z,7.57
2018-05-26T05:01:04.060Z,7.95
2018-05-26T05:01:36.583Z,7.47
2018-05-26T05:02:09.892Z,7.60
2018-05-26T05:02:42.436Z,7.15
2018-05-26T05:03:15.074Z,7.55
2018-05-26T05:03:47.996Z,8.10
2018-05-26T05:04:20.518Z,7.82
2018-05-26T05:04:53.036Z,7.10
2018-05-26T05:05:25.572Z,7.68
2018-05-26T05:05:58.126Z,7.70
2018-05-26T05:06:30.726Z,7.00
2018-05-26T05:07:03.236Z,7.82
2018-05-26T05:07:35.741Z,7.55
2018-05-26T05:08:08.393Z,8.07
2018-05-26T05:08:41.026Z,8.20
2018-05-26T05:09:13.567Z,7.75
2018-05-26T05:09:46.137Z,6.80
2018-05-26T05:10:18.672Z,7.85
2018-05-26T05:10:51.202Z,7.90
2018-05-26T05:11:23.742Z,7.35
2018-05-26T05:11:56.247Z,7.30
2018-05-26T05:12:28.820Z,7.10
2018-05-26T05:13:01.370Z,7.80
2018-05-26T05:13:34.064Z,7.25
2018-05-26T05:14:06.738Z,6.90
2018-05-26T05:14:39.265Z,6.93
2018-05-26T05:15:12.075Z,7.87
2018-05-26T05:15:44.623Z,7.50
2018-05-26T05:16:17.228Z,7.82
2018-05-26T05:16:50.531Z,7.20
2018-05-26T05:17:23.811Z,8.15
2018-05-26T05:17:56.355Z,8.60
2018-05-26T05:18:28.877Z,7.57
2018-05-26T05:19:01.413Z,7.15
2018-05-26T05:19:33.940Z,6.80
2018-05-26T05:20:06.465Z,7.20
2018-05-26T05:20:39.154Z,7.80
2018-05-26T05:21:11.852Z,7.37
2018-05-26T05:21:44.384Z,6.50
2018-05-26T05:22:17.115Z,6.93
2018-05-26T05:22:49.651Z,7.97
2018-05-26T05:23:22.938Z,7.12
2018-05-26T05:23:55.523Z,7.55
2018-05-26T05:24:28.033Z,7.20
2018-05-26T05:25:00.564Z,7.00
2018-05-26T05:25:33.105Z,7.00
2018-05-26T05:26:05.622Z,7.68
2018-05-26T05:26:38.147Z,8.07
2018-05-26T05:27:10.697Z,10.25
2018-05-26T05:27:43.434Z,7.12
2018-05-26T05:28:16.048Z,6.25
2018-05-26T05:28:48.618Z,7.53
2018-05-26T05:29:21.164Z,7.72
2018-05-26T05:29:53.835Z,6.68
2018-05-26T05:30:26.694Z,7.55
2018-05-26T05:30:59.271Z,6.72
2018-05-26T05:31:31.802Z,6.78
2018-05-26T05:32:04.353Z,6.72
2018-05-26T05:32:36.943Z,7.90
2018-05-26T05:33:09.836Z,7.60
2018-05-26T05:33:42.379Z,7.12
2018-05-26T05:34:14.932Z,7.32
2018-05-26T05:34:47.488Z,7.85
2018-05-26T05:35:20.015Z,7.75
2018-05-26T05:35:52.549Z,7.25
2018-05-26T05:36:25.113Z,7.10
2018-05-26T05:36:57.698Z,7.57
2018-05-26T05:37:30.263Z,7.12
2018-05-26T05:38:02.805Z,6.82
2018-05-26T05:38:35.372Z,7.00
2018-05-26T05:39:07.908Z,7.50
2018-05-26T05:39:40.427Z,7.28
2018-05-26T05:40:12.937Z,7.10
2018-05-26T05:40:46.229Z,7.10
2018-05-26T05:41:18.774Z,7.00
2018-05-26T05:41:51.296Z,6.50
2018-05-26T05:42:23.832Z,6.82
2018-05-26T05:42:56.326Z,6.97
2018-05-26T05:43:28.847Z,6.72
2018-05-26T05:44:01.595Z,7.57
2018-05-26T05:44:34.198Z,6.80
2018-05-26T05:45:06.715Z,6.93
2018-05-26T05:45:39.247Z,7.05
2018-05-26T05:46:11.770Z,6.87
2018-05-26T05:46:44.299Z,7.18
2018-05-26T05:47:17.295Z,7.40
2018-05-26T05:47:49.818Z,7.07
2018-05-26T05:48:22.339Z,8.05
2018-05-26T05:48:54.876Z,6.82
2018-05-26T05:49:28.181Z,6.72
2018-05-26T05:50:00.704Z,6.85
2018-05-26T05:50:33.294Z,7.10
2018-05-26T05:51:05.984Z,7.10
2018-05-26T05:51:38.548Z,6.43
2018-05-26T05:52:11.075Z,7.50
2018-05-26T05:52:43.624Z,6.62
2018-05-26T05:53:17.001Z,6.45
2018-05-26T05:53:49.539Z,6.35
2018-05-26T05:54:22.072Z,7.10
2018-05-26T05:54:54.596Z,6.82
2018-05-26T05:55:27.133Z,6.80
2018-05-26T05:55:59.649Z,6.53
2018-05-26T05:56:32.252Z,6.40
2018-05-26T05:57:04.788Z,6.55
2018-05-26T05:57:37.326Z,6.87
2018-05-26T05:58:10.242Z,7.25
2018-05-26T05:58:42.862Z,7.05
2018-05-26T05:59:15.386Z,6.68
2018-05-26T05:59:47.935Z,6.45
2018-05-26T06:00:20.653Z,6.70
2018-05-26T06:00:53.216Z,7.20
2018-05-26T06:01:26.857Z,6.80
2018-05-26T06:01:59.421Z,7.15
2018-05-26T06:02:32.117Z,6.87
2018-05-26T06:03:04.645Z,6.53
2018-05-26T06:03:37.273Z,7.12
2018-05-26T06:04:09.886Z,6.35
2018-05-26T06:04:42.417Z,6.15
2018-05-26T06:05:14.964Z,6.55
2018-05-26T06:05:47.503Z,6.00
2018-05-26T06:06:20.040Z,6.35
2018-05-26T06:06:52.564Z,6.60
2018-05-26T06:07:25.844Z,5.50
2018-05-26T06:07:59.061Z,6.55
2018-05-26T06:08:32.360Z,6.43
2018-05-26T06:09:05.829Z,6.65
2018-05-26T06:09:38.375Z,6.07
2018-05-26T06:10:10.908Z,6.50
2018-05-26T06:10:43.491Z,6.35
2018-05-26T06:11:16.020Z,6.30
2018-05-26T06:11:49.457Z,6.72
2018-05-26T06:12:22.397Z,6.43
2018-05-26T06:12:55.076Z,6.35
2018-05-26T06:13:28.789Z,5.90
2018-05-26T06:14:01.311Z,6.43
2018-05-26T06:14:34.377Z,6.75
2018-05-26T06:15:07.085Z,6.22
2018-05-26T06:15:40.436Z,6.10
2018-05-26T06:16:13.035Z,6.40
2018-05-26T06:16:45.573Z,7.25
2018-05-26T06:17:18.205Z,6.80
2018-05-26T06:17:50.754Z,6.45
2018-05-26T06:18:23.268Z,6.60
2018-05-26T06:18:55.789Z,6.07
2018-05-26T06:19:28.942Z,6.70
2018-05-26T06:20:01.675Z,6.30
2018-05-26T06:20:34.223Z,6.40
2018-05-26T06:21:06.752Z,6.60
2018-05-26T06:21:39.313Z,6.40
2018-05-26T06:22:11.865Z,6.60
2018-05-26T06:22:44.411Z,6.07
2018-05-26T06:23:16.939Z,6.25
2018-05-26T06:23:49.476Z,5.53
2018-05-26T06:24:22.065Z,6.40
2018-05-26T06:24:54.715Z,6.78
2018-05-26T06:25:27.888Z,6.30
2018-05-26T06:26:01.035Z,5.62
2018-05-26T06:26:33.558Z,5.30
2018-05-26T06:27:06.849Z,6.18
2018-05-26T06:27:39.398Z,6.28
2018-05-26T06:28:11.965Z,6.00
2018-05-26T06:28:44.491Z,5.57
2018-05-26T06:29:17.027Z,5.80
2018-05-26T06:29:49.553Z,5.95
2018-05-26T06:30:22.445Z,5.70
2018-05-26T06:30:55.086Z,6.07
2018-05-26T06:31:27.917Z,5.15
2018-05-26T06:32:00.453Z,5.62
2018-05-26T06:32:33.199Z,6.05
2018-05-26T06:33:05.759Z,6.07
2018-05-26T06:33:39.352Z,6.18
2018-05-26T06:34:12.061Z,6.40
2018-05-26T06:34:44.594Z,5.70
2018-05-26T06:35:17.324Z,6.10
2018-05-26T06:35:49.857Z,6.05
2018-05-26T06:36:23.648Z,6.70
2018-05-26T06:36:56.246Z,5.87
2018-05-26T06:37:29.462Z,5.80
2018-05-26T06:38:02.276Z,5.53
2018-05-26T06:38:35.165Z,5.82
2018-05-26T06:39:07.713Z,5.87
2018-05-26T06:39:40.811Z,6.00
2018-05-26T06:40:13.386Z,6.47
2018-05-26T06:40:46.173Z,6.35
2018-05-26T06:41:18.749Z,6.18
2018-05-26T06:41:52.385Z,6.00
2018-05-26T06:42:24.897Z,6.10
2018-05-26T06:42:59.352Z,6.30
2018-05-26T06:43:31.868Z,5.80
2018-05-26T06:44:05.203Z,6.10
2018-05-26T06:44:37.712Z,6.32
2018-05-26T06:45:10.241Z,5.62
2018-05-26T06:45:42.748Z,6.00
2018-05-26T06:46:16.039Z,6.05
2018-05-26T06:46:48.721Z,6.12
2018-05-26T06:47:21.477Z,6.25
2018-05-26T06:47:54.013Z,6.70
2018-05-26T06:48:26.719Z,6.12
2018-05-26T06:48:59.241Z,6.70
2018-05-26T06:49:32.156Z,6.30
2018-05-26T06:50:04.677Z,5.60
2018-05-26T06:50:37.194Z,5.97
2018-05-26T06:51:09.710Z,6.40
2018-05-26T06:51:42.311Z,5.95
2018-05-26T06:52:14.850Z,5.70
2018-05-26T06:52:47.466Z,5.75
2018-05-26T06:53:19.998Z,6.00
2018-05-26T06:53:52.552Z,6.68
2018-05-26T06:54:25.098Z,6.30
2018-05-26T06:54:57.653Z,6.30
2018-05-26T06:55:30.188Z,5.72
2018-05-26T06:56:02.779Z,5.82
2018-05-26T06:56:35.484Z,6.15
2018-05-26T06:57:08.201Z,6.55
2018-05-26T06:57:40.747Z,6.50
2018-05-26T06:58:13.290Z,5.87
2018-05-26T06:58:46.353Z,6.20
2018-05-26T06:59:18.900Z,6.37
2018-05-26T06:59:51.483Z,6.50
2018-05-26T07:00:24.070Z,5.57
2018-05-26T07:00:56.608Z,5.50
2018-05-26T07:01:29.155Z,6.00
2018-05-26T07:02:01.681Z,5.65
2018-05-26T07:02:34.246Z,6.60
2018-05-26T07:03:06.788Z,6.35
2018-05-26T07:03:39.329Z,5.57
2018-05-26T07:04:11.866Z,5.62
2018-05-26T07:04:45.337Z,5.72
2018-05-26T07:05:19.272Z,5.55
2018-05-26T07:05:51.835Z,5.95
2018-05-26T07:06:25.466Z,5.50
2018-05-26T07:06:57.988Z,6.20
2018-05-26T07:07:30.575Z,5.65
2018-05-26T07:08:03.106Z,6.07
2018-05-26T07:08:35.735Z,5.97
2018-05-26T07:09:08.288Z,6.30
2018-05-26T07:09:40.803Z,6.20
2018-05-26T07:10:13.789Z,5.87
2018-05-26T07:10:46.296Z,6.95
2018-05-26T07:11:19.010Z,6.22
2018-05-26T07:11:51.568Z,6.20
2018-05-26T07:12:24.098Z,5.53
2018-05-26T07:12:56.606Z,5.93
2018-05-26T07:13:29.921Z,6.22
2018-05-26T07:14:02.505Z,5.50
2018-05-26T07:14:35.042Z,5.30
2018-05-26T07:15:07.628Z,5.95
2018-05-26T07:15:40.171Z,6.93
2018-05-26T07:16:12.726Z,7.15
2018-05-26T07:16:45.493Z,5.70
2018-05-26T07:17:18.036Z,5.57
2018-05-26T07:17:51.932Z,7.47
2018-05-26T07:18:25.813Z,6.15
2018-05-26T07:18:59.692Z,5.70
2018-05-26T07:19:33.567Z,6.40
2018-05-26T07:20:07.450Z,5.78
2018-05-26T07:20:41.399Z,6.10
2018-05-26T07:21:15.294Z,5.70
2018-05-26T07:21:49.347Z,5.85
2018-05-26T07:22:23.264Z,5.12
2018-05-26T07:22:57.434Z,5.90
2018-05-26T07:23:34.508Z,5.57
2018-05-26T07:24:08.500Z,6.10
2018-05-26T07:24:42.453Z,5.53
2018-05-26T07:25:16.593Z,5.40
2018-05-26T07:25:50.697Z,5.75
2018-05-26T07:26:24.609Z,5.00
2018-05-26T07:26:58.540Z,5.80
2018-05-26T07:27:32.465Z,5.53
2018-05-26T07:28:06.366Z,5.65
2018-05-26T07:28:40.361Z,5.10
2018-05-26T07:29:14.256Z,5.82
2018-05-26T07:29:49.633Z,4.85
2018-05-26T07:30:23.544Z,4.90
2018-05-26T07:30:57.411Z,5.90
2018-05-26T07:31:31.292Z,5.55
2018-05-26T07:32:05.284Z,5.37
2018-05-26T07:32:39.836Z,5.60
2018-05-26T07:33:14.027Z,6.10
2018-05-26T07:33:47.993Z,5.90